Time;durP1;ratioP1;P1;durP2;ratioP2;P2;SDS_P1;SDS_P2;PMS_P1;PMS_P2;Temp;Humidity;BMP_temperature;BMP_pressure;BME280_temperature;BME280_humidity;BME280_pressure;Samples;Min_cycle;Max_cycle;Signal;HPM_P1;HPM_P2
2022/12/17 13:08:04;;;;;;;36.70;27.50;;;-2.20;99.90;;;;;;6086721;23;20195;-70
2022/12/17 13:10:32;;;;;;;36.25;28.10;;;-2.20;99.90;;;;;;6080273;23;20683;-70
2022/12/17 13:13:11;;;;;;;34.00;27.55;;;-2.20;99.90;;;;;;6088465;23;20201;-69
2022/12/17 13:15:45;;;;;;;36.67;28.10;;;-2.20;99.90;;;;;;6076043;23;20195;-70
2022/12/17 13:18:22;;;;;;;42.55;29.48;;;-2.10;99.90;;;;;;6084876;23;20265;-70
2022/12/17 13:20:59;;;;;;;38.67;27.10;;;-2.10;99.90;;;;;;6077260;23;20188;-69
2022/12/17 13:23:29;;;;;;;34.90;26.02;;;-2.00;99.90;;;;;;6070065;23;20623;-71
2022/12/17 13:26:14;;;;;;;38.45;28.00;;;-1.90;99.90;;;;;;6071408;23;20265;-70
2022/12/17 13:28:43;;;;;;;40.08;28.10;;;-2.00;99.90;;;;;;6086821;23;20286;-71
2022/12/17 13:31:17;;;;;;;38.83;28.65;;;-1.90;99.90;;;;;;6072098;23;20196;-69
2022/12/17 13:33:50;;;;;;;37.50;27.17;;;-2.00;99.90;;;;;;6077822;23;20594;-70
2022/12/17 13:36:24;;;;;;;38.58;29.23;;;-1.90;99.90;;;;;;6090643;23;20280;-70
2022/12/17 13:38:56;;;;;;;37.78;29.70;;;-1.90;99.90;;;;;;6085181;23;20676;-70
2022/12/17 13:41:29;;;;;;;38.45;27.75;;;-1.90;99.90;;;;;;6089210;23;20195;-70
2022/12/17 13:43:59;;;;;;;37.67;28.10;;;-1.90;99.90;;;;;;6088235;23;20196;-70
2022/12/17 13:46:28;;;;;;;35.33;26.85;;;-2.00;99.90;;;;;;6088522;23;20337;-70
2022/12/17 13:48:59;;;;;;;36.70;27.92;;;-2.00;99.90;;;;;;6085791;23;20214;-71
2022/12/17 13:51:28;;;;;;;35.85;26.90;;;-2.00;99.90;;;;;;6080787;23;20648;-70
2022/12/17 13:53:57;;;;;;;37.47;27.20;;;-2.00;99.90;;;;;;6082273;23;20260;-70
2022/12/17 13:56:28;;;;;;;40.45;28.65;;;-2.00;99.90;;;;;;6077050;23;20241;-73
2022/12/17 13:58:57;;;;;;;37.58;27.98;;;-1.90;99.90;;;;;;6086638;23;20266;-71
2022/12/17 14:01:25;;;;;;;35.85;26.42;;;-1.80;99.90;;;;;;6087896;23;20249;-71
2022/12/17 14:03:54;;;;;;;34.90;27.98;;;-1.70;99.90;;;;;;6089251;23;20199;-71
2022/12/17 14:06:24;;;;;;;37.50;26.45;;;-1.60;99.90;;;;;;6089259;23;20220;-71
2022/12/17 14:08:54;;;;;;;37.58;26.23;;;-1.60;99.90;;;;;;6084897;23;20282;-71
2022/12/17 14:14:15;;;;;;;37.85;29.33;;;-1.70;99.90;;;;;;6089354;23;20212;-70
2022/12/17 14:16:42;;;;;;;40.88;30.30;;;-1.80;99.90;;;;;;6089032;23;20198;-70
2022/12/17 14:19:11;;;;;;;39.47;28.55;;;-2.00;99.90;;;;;;6088978;23;20193;-71
2022/12/17 14:21:40;;;;;;;41.40;29.58;;;-2.10;99.90;;;;;;6082682;23;20222;-71
2022/12/17 14:24:10;;;;;;;38.53;29.17;;;-2.20;99.90;;;;;;6081858;23;20192;-71
2022/12/17 14:26:48;;;;;;;39.70;29.60;;;-2.20;99.90;;;;;;6090192;23;20196;-70
2022/12/17 14:29:15;;;;;;;38.42;29.33;;;-2.10;99.90;;;;;;6087892;23;20212;-71
2022/12/17 14:31:53;;;;;;;42.75;28.73;;;-2.10;99.90;;;;;;6090096;23;20522;-71
2022/12/17 14:34:20;;;;;;;38.45;29.73;;;-2.20;99.90;;;;;;6090891;23;20190;-72
2022/12/17 14:36:54;;;;;;;41.25;29.27;;;-2.30;99.90;;;;;;6090156;23;20717;-72
2022/12/17 14:39:25;;;;;;;40.83;29.85;;;-2.40;99.90;;;;;;6083596;23;20199;-70
2022/12/17 14:44:49;;;;;;;40.88;30.08;;;-2.70;99.90;;;;;;6075199;23;20191;-71
2022/12/17 14:47:20;;;;;;;37.75;29.02;;;-2.80;99.90;;;;;;6093439;23;20223;-75
2022/12/17 14:49:55;;;;;;;42.58;29.15;;;-2.90;99.90;;;;;;6092627;23;20651;-70
2022/12/17 14:52:30;;;;;;;36.95;29.30;;;-2.90;99.90;;;;;;6082789;23;20189;-71
2022/12/17 14:54:58;;;;;;;39.95;29.52;;;-3.00;99.90;;;;;;6087564;23;20193;-70
2022/12/17 14:57:26;;;;;;;37.78;27.98;;;-3.00;99.90;;;;;;6092372;23;20195;-70
2022/12/17 14:59:53;;;;;;;38.15;29.63;;;-3.00;99.90;;;;;;6075301;23;20223;-70
2022/12/17 15:02:25;;;;;;;42.58;30.73;;;-3.00;99.90;;;;;;6085325;23;20264;-71
2022/12/17 15:04:56;;;;;;;39.60;29.35;;;-3.10;99.90;;;;;;6085329;23;20216;-70
2022/12/17 15:07:27;;;;;;;43.83;32.13;;;-3.20;99.90;;;;;;6078824;23;20911;-70
2022/12/17 15:09:55;;;;;;;45.53;31.08;;;-3.30;99.90;;;;;;6085085;23;20579;-71
2022/12/17 15:12:24;;;;;;;40.47;30.02;;;-3.30;99.90;;;;;;6087795;23;20188;-76
2022/12/17 15:14:52;;;;;;;41.15;30.25;;;-3.40;99.90;;;;;;6076088;23;20190;-71
2022/12/17 15:17:19;;;;;;;39.53;29.70;;;-3.40;99.90;;;;;;6077969;23;20190;-70
2022/12/17 15:19:48;;;;;;;44.58;30.30;;;-3.40;99.90;;;;;;6082932;23;20218;-70
2022/12/17 15:22:17;;;;;;;45.35;31.73;;;-3.50;99.90;;;;;;6083193;23;20192;-70
2022/12/17 15:24:46;;;;;;;41.80;31.65;;;-3.50;99.90;;;;;;6083080;23;20189;-70
2022/12/17 15:27:15;;;;;;;45.20;32.40;;;-3.50;99.90;;;;;;6081996;23;20189;-69
2022/12/17 15:29:42;;;;;;;46.03;33.22;;;-3.60;99.90;;;;;;6073472;23;20214;-71
2022/12/17 15:32:17;;;;;;;47.80;32.10;;;-3.60;99.90;;;;;;6073463;23;20252;-70
2022/12/17 15:34:45;;;;;;;44.70;31.95;;;-3.60;99.90;;;;;;6074958;23;20197;-70
2022/12/17 15:37:12;;;;;;;42.85;31.65;;;-3.70;99.90;;;;;;6067166;23;20186;-70
2022/12/17 15:39:39;;;;;;;44.03;31.90;;;-3.70;99.90;;;;;;6068115;23;20193;-70
2022/12/17 15:44:53;;;;;;;45.38;31.08;;;-3.70;99.90;;;;;;6077872;23;20193;-69
2022/12/17 15:47:20;;;;;;;39.40;29.75;;;-3.80;99.90;;;;;;6087587;23;20522;-69
2022/12/17 15:49:48;;;;;;;49.80;31.95;;;-3.80;99.90;;;;;;6075063;23;20214;-69
2022/12/17 15:52:15;;;;;;;46.88;33.40;;;-3.90;99.90;;;;;;6078721;23;20265;-69
2022/12/17 15:54:42;;;;;;;44.00;31.70;;;-4.00;99.90;;;;;;6070502;23;20197;-70
2022/12/17 15:57:11;;;;;;;45.50;31.92;;;-4.10;99.90;;;;;;6066845;23;20190;-70
2022/12/17 15:59:38;;;;;;;47.03;31.63;;;-4.30;99.90;;;;;;6078207;23;20204;-70
2022/12/17 16:02:07;;;;;;;46.20;32.08;;;-4.30;99.90;;;;;;6072090;23;20197;-69
2022/12/17 16:04:34;;;;;;;50.42;34.58;;;-4.40;99.90;;;;;;6068348;23;20643;-69
2022/12/17 16:07:01;;;;;;;49.90;35.08;;;-4.40;99.90;;;;;;6076128;23;20228;-70
2022/12/17 16:09:28;;;;;;;49.45;35.42;;;-4.50;99.90;;;;;;6070856;23;20279;-70
2022/12/17 16:11:56;;;;;;;51.40;35.42;;;-4.50;99.90;;;;;;6083967;23;20247;-70
2022/12/17 16:14:25;;;;;;;50.65;35.78;;;-4.60;99.90;;;;;;6085007;23;20208;-70
2022/12/17 16:16:52;;;;;;;52.33;36.20;;;-4.70;99.90;;;;;;6069399;23;20197;-70
2022/12/17 16:19:22;;;;;;;59.10;38.88;;;-4.80;99.90;;;;;;6074403;23;20181;-71
2022/12/17 16:21:49;;;;;;;53.65;37.30;;;-4.80;99.90;;;;;;6077083;23;20185;-71
2022/12/17 16:24:17;;;;;;;49.13;36.13;;;-4.80;99.90;;;;;;6078258;23;20200;-70
2022/12/17 16:26:44;;;;;;;53.58;37.60;;;-4.80;99.90;;;;;;6083416;23;20226;-70
2022/12/17 16:29:18;;;;;;;52.67;37.80;;;-4.80;99.90;;;;;;6092122;23;20189;-71
2022/12/17 16:31:48;;;;;;;54.35;39.53;;;-4.80;99.90;;;;;;6086930;23;20279;-71
2022/12/17 16:34:16;;;;;;;58.78;39.45;;;-4.80;99.90;;;;;;6083574;23;20560;-70
2022/12/17 16:36:43;;;;;;;57.60;39.45;;;-4.80;99.90;;;;;;6079104;23;20187;-71
2022/12/17 16:39:16;;;;;;;62.47;42.22;;;-4.80;99.90;;;;;;6075637;23;20224;-70
2022/12/17 16:41:43;;;;;;;56.85;38.90;;;-4.80;99.90;;;;;;6070447;23;20204;-71
2022/12/17 16:44:11;;;;;;;55.70;39.75;;;-4.90;99.90;;;;;;6085337;23;20188;-69
2022/12/17 16:46:39;;;;;;;55.92;39.97;;;-4.90;99.90;;;;;;6075891;23;20228;-69
2022/12/17 16:49:10;;;;;;;56.97;37.78;;;-5.00;99.90;;;;;;6082374;23;20196;-70
2022/12/17 16:51:38;;;;;;;59.38;39.38;;;-5.00;99.90;;;;;;6080142;23;20272;-70
2022/12/17 16:54:12;;;;;;;61.95;41.85;;;-5.00;99.90;;;;;;6082390;23;20192;-69
2022/12/17 16:56:40;;;;;;;61.08;38.90;;;-5.10;99.90;;;;;;6074501;23;20281;-69
2022/12/17 16:59:09;;;;;;;59.47;39.60;;;-5.10;99.90;;;;;;6077933;23;20285;-70
2022/12/17 17:01:38;;;;;;;62.55;39.70;;;-5.10;99.90;;;;;;6073397;23;20197;-70
2022/12/17 17:04:07;;;;;;;62.22;40.95;;;-5.20;99.90;;;;;;6082570;23;20645;-70
2022/12/17 17:06:39;;;;;;;67.55;42.17;;;-5.20;99.90;;;;;;6067471;23;20196;-70
2022/12/17 17:09:06;;;;;;;63.50;39.65;;;-5.30;99.90;;;;;;6073609;23;20208;-70
2022/12/17 17:11:33;;;;;;;56.85;39.35;;;-5.40;99.90;;;;;;6071192;23;20705;-69
2022/12/17 17:14:01;;;;;;;62.92;40.80;;;-5.40;99.90;;;;;;6080810;23;20275;-75
2022/12/17 17:16:29;;;;;;;64.22;42.40;;;-5.40;99.90;;;;;;6080744;23;20216;-69
2022/12/17 17:18:56;;;;;;;65.80;42.63;;;-5.40;99.90;;;;;;6081146;23;20625;-70
2022/12/17 17:21:27;;;;;;;63.33;42.38;;;-5.40;99.90;;;;;;6084879;23;20215;-69
2022/12/17 17:23:58;;;;;;;67.28;40.85;;;-5.50;99.90;;;;;;6082649;23;20279;-69
2022/12/17 17:26:27;;;;;;;69.50;42.22;;;-5.30;99.90;;;;;;6080403;23;20200;-69
2022/12/17 17:28:55;;;;;;;63.63;41.88;;;-5.60;99.90;;;;;;6084935;23;20189;-69
2022/12/17 17:31:22;;;;;;;61.25;41.60;;;-5.60;99.90;;;;;;6097213;23;20215;-70
2022/12/17 17:33:51;;;;;;;62.90;42.17;;;-5.70;99.90;;;;;;6087096;23;20263;-70
2022/12/17 17:36:20;;;;;;;65.70;44.00;;;-5.70;99.90;;;;;;6078998;23;20771;-69
2022/12/17 17:38:49;;;;;;;71.53;43.72;;;-5.80;99.90;;;;;;6085918;23;20188;-70
2022/12/17 17:41:19;;;;;;;63.83;42.03;;;-5.70;99.90;;;;;;6084243;23;20470;-69
2022/12/17 17:43:46;;;;;;;63.33;41.97;;;-5.80;99.90;;;;;;6084341;23;20259;-69
2022/12/17 17:46:15;;;;;;;62.67;41.67;;;-5.80;99.90;;;;;;6081026;23;20711;-70
2022/12/17 17:48:43;;;;;;;66.25;39.55;;;-5.80;99.90;;;;;;6083603;23;20226;-69
2022/12/17 17:51:13;;;;;;;66.30;43.17;;;-5.80;99.90;;;;;;6082582;23;20270;-70
2022/12/17 17:53:41;;;;;;;67.68;44.10;;;-5.90;99.90;;;;;;6084105;23;20267;-69
2022/12/17 17:56:13;;;;;;;68.20;41.15;;;-5.90;99.90;;;;;;6083647;23;20193;-69
2022/12/17 17:58:43;;;;;;;67.63;44.35;;;-6.10;99.90;;;;;;6085059;23;20300;-69
2022/12/17 18:01:11;;;;;;;69.82;43.30;;;-6.00;99.90;;;;;;6083824;23;20188;-70
2022/12/17 18:03:38;;;;;;;72.43;45.83;;;-6.00;99.90;;;;;;6083327;23;20682;-69
2022/12/17 18:06:10;;;;;;;67.78;42.88;;;-6.00;99.90;;;;;;6084393;23;20322;-70
2022/12/17 18:08:37;;;;;;;66.93;42.58;;;-6.00;99.90;;;;;;6082815;23;20654;-70
2022/12/17 18:11:07;;;;;;;68.10;42.88;;;-6.00;99.90;;;;;;6084515;23;20208;-70
2022/12/17 18:16:21;;;;;;;65.80;41.53;;;-6.00;99.90;;;;;;6085369;23;20264;-69
2022/12/17 18:18:48;;;;;;;72.10;46.72;;;-6.00;99.90;;;;;;6078681;23;20207;-71
2022/12/17 18:21:18;;;;;;;83.72;53.22;;;-6.00;99.90;;;;;;6087969;23;20264;-69
2022/12/17 18:23:45;;;;;;;70.88;45.95;;;-5.10;99.90;;;;;;6081037;23;20224;-70
2022/12/17 18:26:14;;;;;;;73.45;43.83;;;-5.10;99.90;;;;;;6081009;23;20200;-70
2022/12/17 18:28:42;;;;;;;67.10;42.92;;;-5.20;99.90;;;;;;6082153;23;20188;-70
2022/12/17 18:31:11;;;;;;;63.67;39.97;;;-5.40;99.90;;;;;;6081525;23;20579;-74
2022/12/17 18:33:42;;;;;;;62.72;40.35;;;-5.20;99.90;;;;;;6081332;23;20757;-71
2022/12/17 18:36:12;;;;;;;70.05;41.22;;;-5.60;99.90;;;;;;6085208;23;20296;-71
2022/12/17 18:38:40;;;;;;;68.85;42.00;;;-5.70;99.90;;;;;;6085451;23;20193;-70
2022/12/17 18:43:22;;;;;;;70.18;44.13;;;-5.90;99.90;;;;;;6086196;23;20197;-70
2022/12/17 18:43:57;;;;;;;72.30;44.10;;;-6.00;99.90;;;;;;6084952;23;20571;-70
2022/12/17 18:46:25;;;;;;;66.57;42.97;;;-5.80;99.90;;;;;;6080514;23;20200;-70
2022/12/17 18:48:53;;;;;;;66.75;41.55;;;-6.20;99.90;;;;;;6084665;23;20618;-70
2022/12/17 18:51:21;;;;;;;75.40;43.25;;;-6.20;99.90;;;;;;6075471;23;20212;-70
2022/12/17 18:53:49;;;;;;;67.03;43.13;;;-6.20;99.90;;;;;;6079423;23;20212;-69
2022/12/17 18:56:17;;;;;;;71.93;46.28;;;-6.00;99.90;;;;;;6076315;23;20216;-70
2022/12/17 18:58:44;;;;;;;71.40;44.35;;;-6.20;99.90;;;;;;6079410;23;20718;-70
2022/12/17 19:01:23;;;;;;;72.07;45.80;;;-6.10;99.90;;;;;;6076082;23;20269;-70
2022/12/17 19:03:51;;;;;;;72.95;46.85;;;-6.20;99.90;;;;;;6078619;23;20843;-70
2022/12/17 19:06:21;;;;;;;72.70;47.17;;;-6.20;99.90;;;;;;6081783;23;20263;-70
2022/12/17 19:08:49;;;;;;;72.47;45.40;;;-6.20;99.90;;;;;;6075687;23;20231;-70
2022/12/17 19:11:18;;;;;;;74.85;44.25;;;-6.20;99.90;;;;;;6084151;23;20208;-76
2022/12/17 19:13:46;;;;;;;71.40;44.13;;;-6.30;99.90;;;;;;6075629;23;20262;-70
2022/12/17 19:16:15;;;;;;;66.97;41.55;;;-6.30;99.90;;;;;;6083698;23;20188;-70
2022/12/17 19:18:43;;;;;;;69.07;44.85;;;-6.10;99.90;;;;;;6082145;23;20199;-70
2022/12/17 19:21:13;;;;;;;69.93;44.92;;;-6.20;99.90;;;;;;6087196;23;20188;-70
2022/12/17 19:23:42;;;;;;;73.97;46.00;;;-6.50;99.90;;;;;;6086179;23;20188;-70
2022/12/17 19:26:13;;;;;;;70.63;44.85;;;-6.50;99.90;;;;;;6081047;23;20208;-70
2022/12/17 19:28:40;;;;;;;70.50;45.40;;;-6.50;99.90;;;;;;6079379;23;20479;-71
2022/12/17 19:31:07;;;;;;;77.10;46.13;;;-6.20;99.90;;;;;;6089465;23;20220;-70
2022/12/17 19:33:35;;;;;;;75.97;49.63;;;-6.40;99.90;;;;;;6079774;23;20236;-71
2022/12/17 19:36:09;;;;;;;70.10;44.05;;;-6.50;99.90;;;;;;6086228;23;20188;-70
2022/12/17 19:38:37;;;;;;;65.97;43.72;;;-6.50;99.90;;;;;;6085095;23;20271;-70
2022/12/17 19:41:07;;;;;;;72.50;43.58;;;-6.50;99.90;;;;;;6084019;23;20216;-70
2022/12/17 19:43:34;;;;;;;70.35;43.00;;;-6.50;99.90;;;;;;6081791;23;20741;-71
2022/12/17 19:46:03;;;;;;;83.00;49.55;;;-6.50;99.90;;;;;;6082167;23;20315;-70
2022/12/17 19:48:32;;;;;;;75.07;46.10;;;-6.50;99.90;;;;;;6074261;23;20622;-70
2022/12/17 19:50:59;;;;;;;72.90;47.25;;;-6.60;99.90;;;;;;6085828;23;20291;-70
2022/12/17 19:53:28;;;;;;;80.65;48.70;;;-6.60;99.90;;;;;;6077055;23;21097;-70
2022/12/17 19:55:56;;;;;;;73.57;48.33;;;-6.30;99.90;;;;;;6084134;23;20193;-70
2022/12/17 19:58:26;;;;;;;74.75;46.67;;;-6.70;99.90;;;;;;6086187;23;20654;-70
2022/12/17 20:00:53;;;;;;;84.32;52.15;;;-6.70;99.90;;;;;;6084322;23;20185;-70
2022/12/17 20:03:20;;;;;;;81.13;49.17;;;-6.80;99.90;;;;;;6078971;23;20258;-70
2022/12/17 20:05:47;;;;;;;78.60;47.97;;;-6.50;99.90;;;;;;6083542;23;20216;-70
2022/12/17 20:08:14;;;;;;;80.15;51.78;;;-6.80;99.90;;;;;;6075620;23;20654;-70
2022/12/17 20:10:41;;;;;;;74.75;50.55;;;-6.80;99.90;;;;;;6087671;23;20626;-70
2022/12/17 20:13:09;;;;;;;71.75;45.03;;;-6.60;99.90;;;;;;6074763;23;20184;-70
2022/12/17 20:15:38;;;;;;;72.25;45.85;;;-6.70;99.90;;;;;;6075958;23;20198;-70
2022/12/17 20:18:05;;;;;;;74.95;46.83;;;-6.70;99.90;;;;;;6082477;23;20185;-70
2022/12/17 20:20:32;;;;;;;81.07;47.63;;;-6.70;99.90;;;;;;6078889;23;20534;-70
2022/12/17 20:23:00;;;;;;;72.13;46.25;;;-6.70;99.90;;;;;;6076180;23;20732;-70
2022/12/17 20:25:27;;;;;;;75.15;46.20;;;-6.70;99.90;;;;;;6081901;23;20228;-70
2022/12/17 20:27:55;;;;;;;75.32;45.00;;;-6.70;99.90;;;;;;6078439;23;20223;-70
2022/12/17 20:30:25;;;;;;;76.03;47.42;;;-6.70;99.90;;;;;;6079368;23;20196;-70
2022/12/17 20:32:58;;;;;;;82.40;46.13;;;-6.80;99.90;;;;;;6084309;23;20262;-70
2022/12/17 20:35:28;;;;;;;70.88;44.78;;;-6.80;99.90;;;;;;6084569;23;20192;-70
2022/12/17 20:37:55;;;;;;;78.47;45.35;;;-6.90;99.90;;;;;;6082570;23;20199;-70
2022/12/17 20:40:22;;;;;;;71.47;43.67;;;-6.90;99.90;;;;;;6081668;23;20583;-70
2022/12/17 20:42:51;;;;;;;70.53;42.90;;;-6.70;99.90;;;;;;6083870;23;20263;-70
2022/12/17 20:45:18;;;;;;;69.15;43.20;;;-7.00;99.90;;;;;;6081142;23;20189;-71
2022/12/17 20:47:46;;;;;;;71.25;46.13;;;-6.70;99.90;;;;;;6084095;23;20251;-70
2022/12/17 20:50:14;;;;;;;75.63;46.03;;;-6.70;99.90;;;;;;6086111;23;20307;-70
2022/12/17 20:52:41;;;;;;;75.43;45.80;;;-6.90;99.90;;;;;;6085291;23;20247;-70
2022/12/17 20:55:09;;;;;;;70.18;44.28;;;-6.70;99.90;;;;;;6081128;23;20192;-70
2022/12/17 20:57:36;;;;;;;73.13;46.63;;;-6.90;99.90;;;;;;6083578;23;20267;-70
2022/12/17 21:00:05;;;;;;;78.40;46.65;;;-6.90;99.90;;;;;;6084834;23;20673;-70
2022/12/17 21:02:31;;;;;;;79.80;44.70;;;-6.90;99.90;;;;;;6077921;23;20191;-70
2022/12/17 21:04:59;;;;;;;75.07;47.92;;;-7.00;99.90;;;;;;6081663;23;20192;-70
2022/12/17 21:07:27;;;;;;;74.50;44.35;;;-7.00;99.90;;;;;;6078432;23;20261;-70
2022/12/17 21:09:55;;;;;;;83.15;46.13;;;-6.90;99.90;;;;;;6081951;23;20287;-71
2022/12/17 21:13:27;;;;;;;73.05;46.13;;;-7.00;99.90;;;;;;6078879;23;20208;-70
2022/12/17 21:15:10;;;;;;;70.57;44.10;;;-7.10;99.90;;;;;;6083415;23;20189;-71
2022/12/17 21:17:38;;;;;;;76.45;46.28;;;-7.20;99.90;;;;;;6079925;23;20188;-70
2022/12/17 21:20:06;;;;;;;72.88;45.30;;;-7.30;99.90;;;;;;6086264;23;20367;-71
2022/12/17 21:22:34;;;;;;;72.40;43.13;;;-7.30;99.90;;;;;;6084117;23;20246;-71
2022/12/17 21:25:01;;;;;;;84.97;47.47;;;-7.30;99.90;;;;;;6075930;23;20208;-70
2022/12/17 21:27:28;;;;;;;72.60;47.13;;;-7.20;99.90;;;;;;6078744;23;20201;-71
2022/12/17 21:29:56;;;;;;;71.53;45.13;;;-7.00;99.90;;;;;;6083614;23;20207;-71
2022/12/17 21:32:23;;;;;;;73.68;45.67;;;-7.30;99.90;;;;;;6078389;23;20292;-70
2022/12/17 21:34:50;;;;;;;75.35;48.50;;;-7.00;99.90;;;;;;6079360;23;20195;-70
2022/12/17 21:37:17;;;;;;;76.20;46.58;;;-7.30;99.90;;;;;;6083131;23;20246;-70
2022/12/17 21:39:46;;;;;;;76.30;46.17;;;-7.30;99.90;;;;;;6086715;23;20224;-70
2022/12/17 21:44:58;;;;;;;71.00;45.28;;;-7.30;99.90;;;;;;6078810;23;20230;-69
2022/12/17 21:47:25;;;;;;;71.55;44.60;;;-7.30;99.90;;;;;;6082714;23;20192;-70
2022/12/17 21:49:55;;;;;;;73.13;44.10;;;-7.40;99.90;;;;;;6077954;23;20219;-70
2022/12/17 21:52:22;;;;;;;69.35;43.28;;;-7.40;99.90;;;;;;6079935;23;20280;-69
2022/12/17 21:54:51;;;;;;;75.65;44.17;;;-7.50;99.90;;;;;;6080444;23;20188;-70
2022/12/17 21:57:18;;;;;;;68.65;45.42;;;-7.30;99.90;;;;;;6083019;23;20663;-70
2022/12/17 21:59:46;;;;;;;71.57;47.75;;;-7.60;99.90;;;;;;6081416;23;20192;-70
2022/12/17 22:02:13;;;;;;;84.63;53.35;;;-7.60;99.90;;;;;;6081330;23;20184;-70
2022/12/17 22:04:40;;;;;;;77.10;48.45;;;-7.50;99.90;;;;;;6081310;23;20204;-70
2022/12/17 22:07:08;;;;;;;79.63;47.03;;;-7.40;99.90;;;;;;6075538;23;20189;-70
2022/12/17 22:36:27;;;;;;;81.50;48.00;;;-7.40;99.90;;;;;;6090525;23;20656;-70
2022/12/17 22:38:54;;;;;;;72.80;42.95;;;-7.30;99.90;;;;;;6083089;23;20188;-69
2022/12/17 22:44:15;;;;;;;76.90;49.67;;;-7.50;99.90;;;;;;6047907;23;20311;-70
2022/12/17 22:46:42;;;;;;;78.80;48.75;;;-7.50;99.90;;;;;;6079016;23;20229;-71
2022/12/17 22:49:10;;;;;;;69.85;46.08;;;-7.50;99.90;;;;;;6088180;23;20185;-69
2022/12/17 22:51:40;;;;;;;78.32;47.58;;;-7.60;99.90;;;;;;6080979;23;20701;-69
2022/12/17 22:54:11;;;;;;;82.53;44.05;;;-7.50;99.90;;;;;;6087752;23;20262;-69
2022/12/17 22:56:41;;;;;;;80.47;46.25;;;-7.60;99.90;;;;;;6085349;23;20199;-68
2022/12/17 22:59:09;;;;;;;84.22;48.30;;;-7.60;99.90;;;;;;6090253;23;20275;-69
2022/12/17 23:01:36;;;;;;;85.75;50.95;;;-7.60;99.90;;;;;;6084114;23;20689;-69
2022/12/17 23:04:03;;;;;;;81.63;49.30;;;-7.30;99.90;;;;;;6086216;23;20271;-69
2022/12/17 23:06:31;;;;;;;78.80;46.72;;;-7.60;99.90;;;;;;6091486;23;20284;-68
2022/12/17 23:08:59;;;;;;;82.13;50.72;;;-7.50;99.90;;;;;;6085775;23;20262;-69
2022/12/17 23:11:30;;;;;;;78.55;47.63;;;-7.50;99.90;;;;;;6089058;23;20220;-69
2022/12/17 23:13:57;;;;;;;69.55;44.88;;;-7.20;99.90;;;;;;6080604;23;20216;-69
2022/12/17 23:16:25;;;;;;;80.32;47.40;;;-7.40;99.90;;;;;;6087644;23;20203;-69
2022/12/17 23:18:54;;;;;;;75.25;44.45;;;-7.40;99.90;;;;;;6087943;23;20284;-69
2022/12/17 23:21:23;;;;;;;69.72;44.25;;;-7.40;99.90;;;;;;6092541;23;20193;-69
2022/12/17 23:23:50;;;;;;;69.88;41.67;;;-7.30;99.90;;;;;;6085107;23;20192;-70
2022/12/17 23:26:22;;;;;;;72.32;42.17;;;-7.30;99.90;;;;;;6084866;23;20618;-69
2022/12/17 23:28:53;;;;;;;76.55;43.45;;;-7.30;99.90;;;;;;6090822;23;20204;-69
2022/12/17 23:31:21;;;;;;;66.28;43.20;;;-7.30;99.90;;;;;;6086034;23;20184;-69
2022/12/17 23:33:48;;;;;;;78.85;45.92;;;-7.30;99.90;;;;;;6089548;23;20212;-69
2022/12/17 23:36:17;;;;;;;69.60;43.95;;;-7.30;99.90;;;;;;6085765;23;20188;-69
2022/12/17 23:38:44;;;;;;;75.07;46.85;;;-7.40;99.90;;;;;;6086998;23;20230;-69
2022/12/17 23:41:15;;;;;;;76.50;45.80;;;-7.30;99.90;;;;;;6085843;23;20185;-69
2022/12/17 23:43:45;;;;;;;71.20;42.97;;;-7.30;99.90;;;;;;6086243;23;20266;-69
2022/12/17 23:46:12;;;;;;;72.03;45.15;;;-7.40;99.90;;;;;;6085280;23;20226;-69
2022/12/17 23:48:42;;;;;;;65.85;43.72;;;-7.40;99.90;;;;;;6084960;23;20212;-69
2022/12/17 23:51:09;;;;;;;74.47;43.70;;;-7.40;99.90;;;;;;6087151;23;20657;-69
2022/12/17 23:53:38;;;;;;;70.38;44.50;;;-7.50;99.90;;;;;;6089087;23;20777;-70
2022/12/17 23:56:06;;;;;;;67.45;42.65;;;-7.40;99.90;;;;;;6078884;23;20189;-69
2022/12/17 23:58:34;;;;;;;69.60;43.65;;;-7.50;99.90;;;;;;6082065;23;20224;-69
